Time;durP1;ratioP1;P1;durP2;ratioP2;P2;SDS_P1;SDS_P2;PMS_P1;PMS_P2;Temp;Humidity;BMP_temperature;BMP_pressure;BME280_temperature;BME280_humidity;BME280_pressure;Samples;Min_cycle;Max_cycle;Signal;HPM_P1;HPM_P2
2023/08/20 00:02:03;;;;;;;8.27;5.10;;;;;;;24.55;64.52;99883.66;4320031;33;33886;-74
2023/08/20 00:04:35;;;;;;;10.02;5.45;;;;;;;24.56;64.43;99880.75;4314523;33;34147;-73
2023/08/20 00:07:03;;;;;;;11.18;6.65;;;;;;;24.50;64.79;99886.19;4317631;33;33364;-74
2023/08/20 00:09:32;;;;;;;11.88;6.20;;;;;;;24.39;65.16;99877.44;4314957;33;33150;-74
2023/08/20 00:12:02;;;;;;;9.43;5.72;;;;;;;24.50;64.80;99878.81;4314894;33;34995;-74
2023/08/20 00:14:56;;;;;;;9.00;5.90;;;;;;;24.43;65.31;99879.81;4313207;33;34047;-75
2023/08/20 00:17:28;;;;;;;9.00;6.07;;;;;;;24.56;64.88;99877.16;4318945;33;33885;-75
2023/08/20 00:19:56;;;;;;;10.57;6.72;;;;;;;24.44;65.20;99874.16;4317544;33;33421;-75
2023/08/20 00:22:24;;;;;;;13.70;9.63;;;;;;;24.42;65.34;99875.38;4314526;33;33877;-75
2023/08/20 00:24:53;;;;;;;10.48;5.50;;;;;;;24.51;65.07;99877.75;4322863;33;33585;-74
2023/08/20 00:27:21;;;;;;;11.25;7.20;;;;;;;24.54;64.90;99876.50;4300524;33;33458;-74
2023/08/20 00:29:49;;;;;;;10.63;6.05;;;;;;;24.45;65.36;99872.25;4299984;33;32792;-74
2023/08/20 00:32:17;;;;;;;11.30;7.25;;;;;;;24.39;65.83;99871.13;4285359;33;34815;-74
2023/08/20 00:34:44;;;;;;;10.77;7.28;;;;;;;24.42;65.78;99873.50;4287540;33;34024;-75
2023/08/20 00:37:12;;;;;;;8.60;5.75;;;;;;;24.50;65.47;99867.88;4299262;33;34648;-74
2023/08/20 00:39:40;;;;;;;7.95;5.43;;;;;;;24.37;65.53;99871.34;4299166;33;32979;-74
2023/08/20 00:42:07;;;;;;;9.30;5.47;;;;;;;24.49;65.35;99865.31;4298250;33;34984;-74
2023/08/20 00:44:35;;;;;;;11.40;6.53;;;;;;;24.56;64.85;99869.78;4297911;33;34092;-74
2023/08/20 00:47:04;;;;;;;12.35;5.87;;;;;;;24.43;65.04;99864.25;4299353;33;33401;-74
2023/08/20 00:49:32;;;;;;;7.43;5.50;;;;;;;24.48;65.02;99871.84;4299833;33;33032;-73
2023/08/20 00:52:00;;;;;;;12.63;6.53;;;;;;;24.56;64.75;99871.69;4299241;33;33539;-75
2023/08/20 00:54:28;;;;;;;11.05;6.57;;;;;;;24.60;64.40;99870.22;4299421;33;33836;-74
2023/08/20 00:56:56;;;;;;;16.87;7.28;;;;;;;24.61;64.18;99869.19;4299690;33;33307;-74
2023/08/20 00:59:24;;;;;;;11.15;6.90;;;;;;;24.54;64.45;99871.87;4323829;33;34079;-74
2023/08/20 01:01:53;;;;;;;9.43;6.35;;;;;;;24.53;64.49;99872.09;4327524;33;33872;-72
2023/08/20 01:04:20;;;;;;;7.50;4.85;;;;;;;24.63;64.03;99875.31;4328109;33;33601;-72
2023/08/20 01:07:16;;;;;;;9.07;5.47;;;;;;;24.60;64.13;99873.81;4327220;33;34726;-72
2023/08/20 01:10:01;;;;;;;8.95;5.70;;;;;;;24.60;64.26;99868.34;4316012;33;33286;-72
2023/08/20 01:12:29;;;;;;;9.07;6.07;;;;;;;24.46;64.65;99874.75;4303206;33;33438;-72
2023/08/20 01:14:57;;;;;;;10.98;6.22;;;;;;;24.43;64.72;99866.13;4321980;33;33920;-72
2023/08/20 01:17:24;;;;;;;10.38;7.07;;;;;;;24.51;64.39;99869.53;4329225;33;34574;-72
2023/08/20 01:19:52;;;;;;;11.73;6.70;;;;;;;24.57;64.00;99876.09;4327347;33;34297;-73
2023/08/20 01:22:32;;;;;;;7.95;5.25;;;;;;;24.46;64.13;99872.03;4297484;33;34856;-72
2023/08/20 01:25:11;;;;;;;7.70;5.75;;;;;;;24.43;63.98;99871.59;4299166;33;33754;-72
2023/08/20 01:27:45;;;;;;;11.75;5.28;;;;;;;24.46;63.83;99872.03;4300097;33;33553;-72
2023/08/20 01:30:13;;;;;;;9.70;5.85;;;;;;;24.56;63.23;99883.47;4285613;33;34487;-72
2023/08/20 01:32:43;;;;;;;9.30;6.07;;;;;;;24.51;63.24;99887.84;4300902;33;33630;-72
2023/08/20 01:35:13;;;;;;;7.25;4.82;;;;;;;24.45;63.28;99881.28;4298160;33;32457;-72
2023/08/20 01:37:41;;;;;;;13.25;5.15;;;;;;;24.45;63.33;99880.47;4298565;33;33817;-76
2023/08/20 01:40:10;;;;;;;7.55;5.00;;;;;;;24.51;63.39;99888.69;4299174;33;34032;-75
2023/08/20 01:42:38;;;;;;;9.30;5.55;;;;;;;24.43;63.53;99886.16;4298293;33;34020;-74
2023/08/20 01:45:07;;;;;;;9.15;5.68;;;;;;;24.40;63.52;99883.78;4299729;33;34983;-75
2023/08/20 01:47:34;;;;;;;10.82;6.53;;;;;;;24.44;63.38;99887.81;4299749;33;33724;-75
2023/08/20 01:50:03;;;;;;;9.63;4.85;;;;;;;24.44;63.43;99885.09;4298242;33;33174;-74
2023/08/20 01:52:34;;;;;;;8.77;5.82;;;;;;;24.44;63.32;99884.25;4298422;33;33654;-76
2023/08/20 01:55:02;;;;;;;10.13;6.93;;;;;;;24.34;63.74;99879.94;4298191;33;33729;-76
2023/08/20 01:57:30;;;;;;;8.55;5.65;;;;;;;24.28;64.09;99885.38;4299183;33;33799;-76
2023/08/20 01:59:58;;;;;;;10.18;5.47;;;;;;;24.40;63.54;99881.88;4313966;33;32992;-76
2023/08/20 02:02:25;;;;;;;14.70;6.18;;;;;;;24.42;63.49;99878.97;4328613;33;35082;-76
2023/08/20 02:04:53;;;;;;;9.63;5.47;;;;;;;24.47;63.29;99883.84;4330785;33;35233;-76
2023/08/20 02:07:21;;;;;;;7.70;5.12;;;;;;;24.52;63.10;99882.16;4330300;33;34668;-75
2023/08/20 02:09:48;;;;;;;8.75;5.90;;;;;;;24.52;63.14;99884.06;4328756;33;33333;-75
2023/08/20 02:12:18;;;;;;;7.35;5.45;;;;;;;24.51;63.11;99879.66;4330571;33;33575;-77
2023/08/20 02:14:45;;;;;;;13.13;6.57;;;;;;;24.52;63.04;99884.91;4329011;33;33900;-76
2023/08/20 02:17:14;;;;;;;13.52;5.47;;;;;;;24.51;63.08;99876.91;4329609;33;33754;-76
2023/08/20 02:19:41;;;;;;;9.70;6.03;;;;;;;24.54;63.05;99881.97;4328701;33;35163;-76
2023/08/20 02:22:09;;;;;;;10.02;6.93;;;;;;;24.44;63.49;99868.66;4329705;33;33457;-76
2023/08/20 02:24:37;;;;;;;10.10;6.50;;;;;;;24.33;63.84;99869.19;4321294;33;33978;-76
2023/08/20 02:27:04;;;;;;;12.43;7.18;;;;;;;24.36;63.62;99872.37;4330219;33;34280;-76
2023/08/20 02:29:32;;;;;;;11.90;6.25;;;;;;;24.40;63.40;99862.72;4328769;33;33389;-74
2023/08/20 02:31:59;;;;;;;9.27;6.65;;;;;;;24.24;64.11;99874.00;4329920;33;34786;-74
2023/08/20 02:34:29;;;;;;;11.30;6.53;;;;;;;24.33;63.86;99875.53;4328622;33;33768;-76
2023/08/20 02:36:57;;;;;;;11.57;7.25;;;;;;;24.32;64.06;99872.97;4328132;33;33632;-74
2023/08/20 02:39:25;;;;;;;16.08;7.10;;;;;;;24.31;64.18;99871.31;4330649;33;34254;-74
2023/08/20 02:41:52;;;;;;;12.27;7.90;;;;;;;24.33;64.16;99874.66;4315890;33;33191;-74
2023/08/20 02:44:20;;;;;;;8.60;6.30;;;;;;;24.37;64.05;99868.59;4316262;33;35161;-73
2023/08/20 02:46:48;;;;;;;10.77;6.53;;;;;;;24.44;63.76;99870.56;4321258;33;34224;-75
2023/08/20 02:49:15;;;;;;;13.38;7.03;;;;;;;24.26;64.45;99874.62;4329093;33;33345;-73
2023/08/20 02:51:43;;;;;;;16.08;8.63;;;;;;;24.30;64.37;99870.47;4325834;33;34368;-74
2023/08/20 02:54:11;;;;;;;10.85;7.85;;;;;;;24.26;64.75;99869.16;4330876;33;33232;-74
2023/08/20 02:56:39;;;;;;;13.00;6.57;;;;;;;24.24;64.85;99867.66;4330607;33;34677;-74
2023/08/20 02:59:06;;;;;;;10.60;6.87;;;;;;;24.22;64.79;99870.59;4327598;33;33231;-74
2023/08/20 03:01:34;;;;;;;11.02;7.37;;;;;;;24.33;64.30;99861.84;4330492;33;33540;-73
2023/08/20 03:04:03;;;;;;;11.15;7.78;;;;;;;24.37;64.12;99865.88;4330130;33;34028;-74
2023/08/20 03:06:30;;;;;;;10.65;6.80;;;;;;;24.37;64.18;99874.06;4322467;33;33660;-73
2023/08/20 03:08:58;;;;;;;9.55;7.80;;;;;;;24.43;63.90;99867.00;4328115;33;33166;-74
2023/08/20 03:11:25;;;;;;;13.15;8.10;;;;;;;24.40;63.86;99873.69;4330398;33;33502;-74
2023/08/20 03:13:53;;;;;;;11.32;8.00;;;;;;;24.40;63.83;99868.19;4330212;33;35199;-73
2023/08/20 03:16:20;;;;;;;10.70;7.18;;;;;;;24.38;63.79;99878.50;4329635;33;33620;-73
2023/08/20 03:18:49;;;;;;;10.38;6.97;;;;;;;24.48;63.29;99878.16;4330295;33;32968;-73
2023/08/20 03:21:16;;;;;;;11.52;7.35;;;;;;;24.49;63.19;99873.53;4328379;33;35634;-73
2023/08/20 03:23:44;;;;;;;9.55;6.45;;;;;;;24.41;63.45;99877.28;4329567;33;34942;-73
2023/08/20 03:26:12;;;;;;;7.85;5.43;;;;;;;24.38;63.57;99875.75;4321642;33;34852;-73
2023/08/20 03:28:39;;;;;;;8.60;6.70;;;;;;;24.47;63.36;99881.09;4329654;33;34488;-73
2023/08/20 03:31:07;;;;;;;13.05;7.20;;;;;;;24.45;63.31;99880.47;4331552;33;34712;-74
2023/08/20 03:33:36;;;;;;;17.20;7.32;;;;;;;24.39;63.56;99882.06;4330842;33;34759;-74
2023/08/20 03:36:03;;;;;;;10.38;6.85;;;;;;;24.36;63.57;99883.31;4331577;33;33594;-72
2023/08/20 03:38:31;;;;;;;11.23;6.80;;;;;;;24.24;63.84;99882.19;4331783;33;33291;-71
2023/08/20 03:40:59;;;;;;;19.00;8.07;;;;;;;24.25;63.87;99891.25;4329329;33;33613;-71
2023/08/20 03:43:27;;;;;;;8.38;6.12;;;;;;;24.20;63.96;99900.03;4329988;33;34971;-71
2023/08/20 03:45:54;;;;;;;9.18;7.28;;;;;;;24.31;63.35;99888.56;4323944;33;33649;-71
2023/08/20 03:48:22;;;;;;;15.23;7.57;;;;;;;24.31;63.28;99891.28;4319238;33;33358;-72
2023/08/20 03:50:49;;;;;;;8.73;6.40;;;;;;;24.40;63.02;99894.72;4332306;33;33921;-71
2023/08/20 03:53:17;;;;;;;9.32;5.30;;;;;;;24.44;62.88;99895.19;4332742;33;33852;-74
2023/08/20 03:55:49;;;;;;;13.35;7.55;;;;;;;24.44;62.78;99906.97;4332038;33;33641;-74
2023/08/20 03:58:16;;;;;;;16.27;7.50;;;;;;;24.47;62.61;99908.47;4332606;33;33030;-74
2023/08/20 04:00:44;;;;;;;8.43;6.62;;;;;;;24.42;62.63;99906.31;4331850;33;35022;-73
2023/08/20 04:03:13;;;;;;;11.98;6.72;;;;;;;24.41;62.85;99915.56;4331171;33;34128;-73
2023/08/20 04:05:41;;;;;;;11.82;5.75;;;;;;;24.33;63.21;99908.34;4327266;33;34340;-73
2023/08/20 04:08:09;;;;;;;10.35;6.90;;;;;;;24.33;63.18;99905.62;4330786;33;33281;-72
2023/08/20 04:10:44;;;;;;;13.48;7.37;;;;;;;24.37;62.90;99915.09;4332152;33;33787;-72
2023/08/20 04:13:13;;;;;;;;;;;;;;;24.42;62.79;99906.31;4320780;33;34894;-72
2023/08/20 04:15:41;;;;;;;9.32;6.55;;;;;;;24.43;62.70;99908.03;4321488;33;34594;-72
2023/08/20 04:18:09;;;;;;;10.75;8.23;;;;;;;24.46;62.85;99915.81;4329239;33;33361;-72
2023/08/20 04:20:37;;;;;;;8.25;5.47;;;;;;;24.50;62.95;99910.81;4330322;33;34674;-73
2023/08/20 04:23:05;;;;;;;8.32;5.82;;;;;;;24.54;62.94;99915.66;4326932;33;35331;-73
2023/08/20 04:25:33;;;;;;;9.60;6.53;;;;;;;24.52;62.98;99911.44;4329168;33;33929;-73
2023/08/20 04:28:00;;;;;;;11.02;6.75;;;;;;;24.66;62.69;99915.09;4331836;33;33515;-75
2023/08/20 04:30:28;;;;;;;9.45;5.45;;;;;;;24.31;63.48;99915.91;4318404;33;33754;-73
2023/08/20 04:32:55;;;;;;;9.65;5.72;;;;;;;24.60;62.58;99914.00;4332307;33;33512;-73
2023/08/20 04:35:23;;;;;;;10.75;6.12;;;;;;;24.70;62.19;99921.84;4322840;33;34617;-70
2023/08/20 04:37:51;;;;;;;9.48;6.68;;;;;;;24.70;62.12;99919.97;4328241;33;33031;-74
2023/08/20 04:40:19;;;;;;;8.05;5.50;;;;;;;24.70;62.27;99922.69;4330937;33;35097;-74
2023/08/20 04:42:46;;;;;;;14.23;7.00;;;;;;;24.78;61.96;99919.81;4331174;33;34204;-73
2023/08/20 04:45:17;;;;;;;12.37;6.87;;;;;;;24.58;62.05;99927.88;4332146;33;33722;-72
2023/08/20 04:47:46;;;;;;;9.88;6.15;;;;;;;24.80;61.48;99925.06;4332415;33;33413;-74
2023/08/20 04:50:14;;;;;;;10.05;6.65;;;;;;;24.78;61.44;99929.88;4332561;33;33692;-74
2023/08/20 04:52:42;;;;;;;9.50;6.20;;;;;;;24.81;61.29;99924.00;4331962;33;35003;-73
2023/08/20 04:55:09;;;;;;;16.00;7.80;;;;;;;24.88;61.28;99924.91;4332390;33;33897;-72
2023/08/20 04:57:38;;;;;;;11.63;7.00;;;;;;;24.99;61.15;99927.03;4330884;33;33300;-72
2023/08/20 05:00:06;;;;;;;9.23;5.00;;;;;;;25.10;61.12;99931.09;4329942;33;34056;-72
2023/08/20 05:02:36;;;;;;;12.45;7.37;;;;;;;25.21;61.10;99933.28;4326973;33;33297;-72
2023/08/20 05:05:05;;;;;;;10.65;6.70;;;;;;;25.26;61.06;99930.75;4315860;33;34011;-72
2023/08/20 05:07:34;;;;;;;11.00;6.53;;;;;;;25.27;60.84;99937.94;4312178;33;33690;-72
2023/08/20 05:10:02;;;;;;;8.88;5.95;;;;;;;25.32;60.71;99937.31;4315879;33;32785;-72
2023/08/20 05:12:30;;;;;;;10.75;6.70;;;;;;;25.40;60.53;99933.56;4313830;33;34955;-73
2023/08/20 05:14:58;;;;;;;12.37;6.32;;;;;;;25.28;60.92;99936.88;4311952;33;33941;-72
2023/08/20 05:17:26;;;;;;;19.85;6.95;;;;;;;25.41;60.42;99936.06;4316305;33;33151;-72
2023/08/20 05:19:53;;;;;;;10.70;7.90;;;;;;;25.54;60.22;99938.00;4317150;33;35136;-72
2023/08/20 05:22:21;;;;;;;10.15;5.93;;;;;;;25.67;60.31;99929.81;4312854;33;34026;-71
2023/08/20 05:24:49;;;;;;;10.07;6.40;;;;;;;25.87;60.10;99934.50;4315916;33;34823;-73
2023/08/20 05:27:17;;;;;;;11.93;6.60;;;;;;;26.14;59.45;99933.47;4310735;33;33313;-72
2023/08/20 05:29:45;;;;;;;10.05;7.00;;;;;;;26.31;58.54;99933.03;4317447;33;33386;-72
2023/08/20 05:32:16;;;;;;;9.30;5.78;;;;;;;26.62;57.26;99932.37;4315747;33;34758;-73
2023/08/20 05:34:44;;;;;;;7.97;5.30;;;;;;;27.32;55.42;99938.91;4317086;33;34485;-72
2023/08/20 05:37:12;;;;;;;10.23;5.82;;;;;;;28.29;52.54;99934.00;4316400;33;34779;-75
2023/08/20 05:39:42;;;;;;;10.88;6.05;;;;;;;28.42;52.30;99940.47;4312194;33;34134;-75
2023/08/20 05:42:10;;;;;;;9.30;6.93;;;;;;;28.13;52.59;99937.31;4307959;33;34036;-74
2023/08/20 05:44:38;;;;;;;9.75;5.75;;;;;;;28.45;52.68;99940.87;4315955;33;33622;-74
2023/08/20 05:47:07;;;;;;;8.48;6.00;;;;;;;29.30;50.50;99939.28;4304897;33;34188;-74
2023/08/20 05:49:34;;;;;;;8.48;6.53;;;;;;;29.99;49.12;99935.09;4312487;33;34722;-74
2023/08/20 05:52:02;;;;;;;9.73;6.60;;;;;;;30.04;48.25;99945.41;4313177;33;34221;-74
2023/08/20 05:54:30;;;;;;;10.00;7.03;;;;;;;30.08;47.78;99943.84;4306639;33;33660;-74
2023/08/20 05:56:58;;;;;;;8.63;6.50;;;;;;;30.55;46.49;99949.44;4314792;33;33372;-74
2023/08/20 05:59:26;;;;;;;10.68;7.70;;;;;;;29.90;47.44;99942.03;4317215;33;34600;-74
2023/08/20 06:01:54;;;;;;;9.50;6.07;;;;;;;29.35;49.05;99948.53;4314827;33;34319;-74
2023/08/20 06:04:22;;;;;;;9.48;7.07;;;;;;;29.06;50.21;99952.94;4330728;33;33863;-74
2023/08/20 06:06:50;;;;;;;9.15;6.47;;;;;;;28.84;50.43;99957.19;4331481;33;34141;-74
2023/08/20 06:09:17;;;;;;;11.48;7.53;;;;;;;28.68;50.98;99964.16;4330059;33;33729;-74
2023/08/20 06:11:45;;;;;;;7.78;5.43;;;;;;;28.48;51.61;99961.59;4329517;33;35507;-74
2023/08/20 06:14:13;;;;;;;8.85;6.60;;;;;;;28.47;51.78;99963.47;4330714;33;34773;-74
2023/08/20 06:16:40;;;;;;;7.03;5.40;;;;;;;28.37;52.08;99962.28;4326326;33;33726;-74
2023/08/20 06:19:08;;;;;;;8.02;5.60;;;;;;;28.32;52.69;99969.31;4330323;33;33962;-72
2023/08/20 06:21:36;;;;;;;9.90;5.87;;;;;;;28.36;52.80;99968.88;4328706;33;34799;-72
2023/08/20 06:24:04;;;;;;;10.52;7.50;;;;;;;28.36;52.91;99969.72;4328480;33;33682;-72
2023/08/20 06:26:32;;;;;;;9.05;7.25;;;;;;;28.38;52.92;99966.72;4330586;33;34015;-72
2023/08/20 06:28:59;;;;;;;8.00;5.78;;;;;;;28.39;53.12;99966.50;4331069;33;33862;-72
2023/08/20 06:31:27;;;;;;;9.25;6.15;;;;;;;28.49;53.15;99969.63;4330537;33;33914;-72
2023/08/20 06:33:55;;;;;;;12.98;5.68;;;;;;;28.46;53.09;99967.31;4327887;33;33322;-72
2023/08/20 06:36:22;;;;;;;8.98;5.18;;;;;;;28.31;53.14;99967.66;4327741;33;33795;-72
2023/08/20 06:38:50;;;;;;;9.93;6.70;;;;;;;28.44;53.08;99969.44;4330614;33;33905;-72
2023/08/20 06:41:18;;;;;;;8.13;6.12;;;;;;;28.47;53.15;99965.41;4328077;33;33893;-72
2023/08/20 06:43:45;;;;;;;8.10;6.28;;;;;;;28.25;53.04;99964.94;4327768;33;34641;-74
2023/08/20 06:46:13;;;;;;;9.43;6.43;;;;;;;28.34;52.92;99967.16;4326387;33;33444;-74
2023/08/20 06:48:41;;;;;;;11.00;5.35;;;;;;;28.30;53.78;99965.09;4329217;33;33890;-74
2023/08/20 06:51:12;;;;;;;8.90;5.68;;;;;;;28.23;53.60;99965.16;4327768;33;33969;-74
2023/08/20 06:53:41;;;;;;;9.20;7.32;;;;;;;28.40;52.97;99967.38;4329450;33;35079;-75
2023/08/20 06:56:08;;;;;;;9.68;7.12;;;;;;;28.46;52.45;99961.81;4322115;33;33707;-74
2023/08/20 06:58:41;;;;;;;9.98;7.22;;;;;;;28.49;53.31;99966.03;4330105;33;33646;-74
2023/08/20 07:01:09;;;;;;;11.73;5.80;;;;;;;28.51;53.73;99961.16;4322149;33;33787;-74
2023/08/20 07:03:38;;;;;;;9.73;7.22;;;;;;;28.72;53.61;99965.38;4323114;33;33578;-74
2023/08/20 07:06:06;;;;;;;12.18;7.85;;;;;;;28.87;53.15;99963.09;4329325;33;32041;-75
2023/08/20 07:08:34;;;;;;;9.10;7.18;;;;;;;28.85;53.04;99964.38;4327458;33;34038;-74
2023/08/20 07:11:02;;;;;;;10.25;7.97;;;;;;;28.90;52.67;99964.56;4325240;33;33362;-75
2023/08/20 07:13:29;;;;;;;9.18;7.90;;;;;;;28.77;54.31;99968.28;4331780;33;34277;-74
2023/08/20 07:15:57;;;;;;;9.85;7.37;;;;;;;28.70;55.30;99968.38;4328587;33;33733;-74
2023/08/20 07:18:25;;;;;;;7.95;5.85;;;;;;;28.69;54.57;99971.34;4321687;33;33509;-74
2023/08/20 07:20:53;;;;;;;9.68;6.87;;;;;;;29.05;54.17;99967.78;4330682;33;34983;-74
2023/08/20 07:23:21;;;;;;;7.78;6.53;;;;;;;29.08;55.04;99977.50;4329339;33;33823;-74
2023/08/20 07:25:51;;;;;;;12.60;7.30;;;;;;;29.19;55.09;99977.56;4331822;33;33899;-74
2023/08/20 07:31:10;;;;;;;9.35;7.43;;;;;;;28.75;55.74;99971.25;4267398;33;34734;-74
2023/08/20 07:33:37;;;;;;;9.60;7.37;;;;;;;29.27;55.04;99976.41;4257792;33;33796;-72
2023/08/20 07:36:05;;;;;;;10.45;8.55;;;;;;;29.63;54.59;99974.69;4270711;33;32960;-74
2023/08/20 07:38:33;;;;;;;8.73;6.07;;;;;;;29.75;53.86;99971.97;4268279;33;33625;-74
2023/08/20 07:41:01;;;;;;;11.75;7.35;;;;;;;29.77;54.54;99980.88;4264841;33;34041;-74
2023/08/20 07:43:29;;;;;;;9.77;8.05;;;;;;;30.02;54.09;99984.31;4271921;33;34215;-74
2023/08/20 07:45:57;;;;;;;11.48;8.57;;;;;;;29.68;54.94;99981.19;4271199;33;33398;-72
2023/08/20 07:48:24;;;;;;;11.68;9.35;;;;;;;29.36;56.02;99983.28;4257221;33;34669;-72
2023/08/20 07:50:52;;;;;;;9.27;7.28;;;;;;;29.60;55.77;99984.28;4270022;33;33813;-73
2023/08/20 07:53:19;;;;;;;9.73;7.82;;;;;;;29.96;53.58;99976.97;4266114;33;35037;-72
2023/08/20 07:55:47;;;;;;;10.73;9.25;;;;;;;30.02;53.46;99983.47;4270055;33;32890;-72
2023/08/20 07:58:15;;;;;;;11.20;8.80;;;;;;;30.23;52.85;99974.62;4282734;33;33921;-72
2023/08/20 08:00:43;;;;;;;11.02;8.73;;;;;;;30.29;53.29;99984.72;4259042;33;34063;-72
2023/08/20 08:03:11;;;;;;;9.38;7.57;;;;;;;29.35;55.42;99984.38;4264858;33;33742;-72
2023/08/20 08:05:38;;;;;;;12.55;7.75;;;;;;;29.73;53.72;99986.03;4269101;33;33541;-72
2023/08/20 08:08:06;;;;;;;10.48;8.75;;;;;;;29.69;53.68;99988.38;4291247;33;35040;-72
2023/08/20 08:10:34;;;;;;;10.95;8.32;;;;;;;29.60;52.44;99980.63;4330489;33;34923;-72
2023/08/20 08:13:02;;;;;;;9.60;8.40;;;;;;;29.49;53.76;99982.28;4331409;33;34594;-72
2023/08/20 08:15:29;;;;;;;8.80;6.97;;;;;;;29.81;53.02;99987.59;4327438;33;34318;-72
2023/08/20 08:17:57;;;;;;;10.77;8.38;;;;;;;29.56;53.24;99988.53;4326810;33;34967;-72
2023/08/20 08:20:25;;;;;;;10.88;8.13;;;;;;;29.32;53.69;99984.84;4328255;33;34237;-72
2023/08/20 08:22:53;;;;;;;9.40;7.60;;;;;;;29.35;54.11;99984.38;4331774;33;33771;-72
2023/08/20 08:25:20;;;;;;;8.70;6.95;;;;;;;30.10;51.79;99983.94;4328852;33;33480;-71
2023/08/20 08:27:48;;;;;;;10.43;8.45;;;;;;;29.92;52.11;99984.00;4331285;33;33693;-72
2023/08/20 08:30:29;;;;;;;8.93;7.18;;;;;;;29.86;52.04;99984.97;4329172;33;34121;-72
2023/08/20 08:32:58;;;;;;;10.38;9.23;;;;;;;29.92;52.08;99984.88;4322330;33;34086;-72
2023/08/20 08:35:26;;;;;;;11.27;7.75;;;;;;;29.99;52.37;99981.19;4328696;33;33424;-72
2023/08/20 08:37:54;;;;;;;10.20;8.27;;;;;;;30.02;52.70;99983.47;4331203;33;33557;-72
2023/08/20 08:40:22;;;;;;;9.48;8.48;;;;;;;30.14;52.75;99981.53;4338277;33;35358;-73
2023/08/20 08:42:50;;;;;;;9.93;8.50;;;;;;;30.31;52.77;99981.75;4328348;33;34699;-72
2023/08/20 08:45:19;;;;;;;10.35;7.82;;;;;;;29.68;53.00;99983.09;4333291;33;33171;-72
2023/08/20 08:47:48;;;;;;;12.85;9.13;;;;;;;30.27;52.20;99984.13;4328777;33;33613;-71
2023/08/20 08:50:16;;;;;;;10.98;8.35;;;;;;;29.93;53.09;99983.78;4328031;33;33623;-71
2023/08/20 08:52:45;;;;;;;10.90;8.38;;;;;;;30.45;51.52;99976.81;4338690;33;34647;-72
2023/08/20 08:55:12;;;;;;;9.40;8.23;;;;;;;30.01;52.59;99990.03;4327494;33;33208;-72
2023/08/20 08:57:40;;;;;;;10.07;8.20;;;;;;;30.22;52.96;99989.53;4327632;33;35023;-72
2023/08/20 09:00:08;;;;;;;9.07;7.82;;;;;;;30.51;51.12;99989.69;4328833;33;34026;-73
2023/08/20 09:02:36;;;;;;;12.85;8.80;;;;;;;30.56;51.48;99987.03;4329184;33;33723;-72
2023/08/20 09:05:05;;;;;;;10.35;7.20;;;;;;;30.84;50.58;99989.09;4331187;33;34500;-78
2023/08/20 09:07:33;;;;;;;11.32;7.10;;;;;;;30.83;50.14;99995.72;4328918;33;33315;-72
2023/08/20 09:10:01;;;;;;;9.90;8.52;;;;;;;30.47;51.16;99988.50;4330412;33;34732;-72
2023/08/20 09:12:34;;;;;;;9.55;7.35;;;;;;;31.08;49.89;99992.69;4327394;33;34599;-73
2023/08/20 09:15:02;;;;;;;12.35;9.15;;;;;;;31.09;49.80;99989.66;4328725;33;32747;-73
2023/08/20 09:17:31;;;;;;;14.27;8.57;;;;;;;30.89;50.11;99997.50;4322279;33;33573;-73
2023/08/20 09:19:58;;;;;;;16.85;7.90;;;;;;;30.76;49.25;99992.22;4328133;33;34968;-72
2023/08/20 09:22:26;;;;;;;10.23;8.00;;;;;;;31.23;49.32;99995.75;4330199;33;33794;-72
2023/08/20 09:24:56;;;;;;;9.73;8.13;;;;;;;31.22;49.25;99996.00;4329545;33;33429;-73
2023/08/20 09:27:23;;;;;;;9.70;8.13;;;;;;;31.62;48.82;99990.50;4322840;33;33269;-72
2023/08/20 09:29:54;;;;;;;10.50;7.95;;;;;;;31.48;49.80;99992.69;4324146;33;33586;-72
2023/08/20 09:32:23;;;;;;;10.13;8.63;;;;;;;31.23;48.54;100001.28;4328916;33;33693;-72
2023/08/20 09:34:52;;;;;;;10.38;8.13;;;;;;;31.54;47.84;99993.66;4331043;33;33444;-72
2023/08/20 09:37:21;;;;;;;9.10;7.72;;;;;;;31.62;47.24;99992.41;4328260;33;33696;-73
2023/08/20 09:39:49;;;;;;;9.75;7.37;;;;;;;31.40;46.83;99990.34;4327178;33;33639;-73
2023/08/20 09:42:17;;;;;;;8.27;6.62;;;;;;;31.88;46.38;99994.63;4329688;33;34092;-74
2023/08/20 09:44:46;;;;;;;9.73;7.18;;;;;;;31.56;44.81;99985.94;4337486;33;33293;-73
2023/08/20 09:47:18;;;;;;;12.37;7.20;;;;;;;32.08;45.10;99990.53;4330788;33;33803;-73
2023/08/20 09:49:47;;;;;;;9.15;7.50;;;;;;;32.52;43.50;99990.72;4322211;33;33795;-74
2023/08/20 09:52:21;;;;;;;10.90;7.57;;;;;;;32.34;43.83;99991.81;4334457;33;34618;-73
2023/08/20 09:54:56;;;;;;;8.52;7.60;;;;;;;32.48;44.25;99982.91;4338319;33;33235;-72
2023/08/20 09:57:33;;;;;;;9.90;8.30;;;;;;;32.72;45.00;99979.97;4314496;33;33762;-72
2023/08/20 10:00:03;;;;;;;10.43;7.80;;;;;;;32.79;44.43;99983.38;4329792;33;33729;-72
2023/08/20 10:02:41;;;;;;;9.05;7.62;;;;;;;32.90;44.21;99985.19;4329708;33;33691;-72
2023/08/20 10:05:10;;;;;;;9.43;7.75;;;;;;;33.04;44.08;99991.25;4328800;33;33212;-72
2023/08/20 10:07:39;;;;;;;8.20;7.12;;;;;;;32.92;43.58;99983.00;4331266;33;34961;-72
2023/08/20 10:10:08;;;;;;;9.52;7.22;;;;;;;33.12;43.71;99981.62;4324274;33;33958;-72
2023/08/20 10:12:38;;;;;;;9.05;6.80;;;;;;;32.97;42.58;99978.66;4327609;33;34876;-72
2023/08/20 10:15:10;;;;;;;9.13;7.00;;;;;;;33.07;42.84;99974.09;4323361;33;33625;-74
2023/08/20 10:17:39;;;;;;;9.85;7.45;;;;;;;33.28;42.20;99971.56;4322642;33;33354;-74
2023/08/20 10:20:08;;;;;;;9.20;7.68;;;;;;;33.52;41.75;99973.00;4316857;33;33520;-75
2023/08/20 10:22:39;;;;;;;10.00;7.30;;;;;;;33.41;43.48;99968.41;4325591;33;33387;-74
2023/08/20 10:25:09;;;;;;;9.50;7.65;;;;;;;33.66;42.48;99969.81;4324849;33;34460;-75
2023/08/20 10:27:45;;;;;;;8.70;6.85;;;;;;;33.41;42.28;99968.41;4325715;33;33314;-74
2023/08/20 10:30:33;;;;;;;10.35;7.72;;;;;;;33.73;41.87;99962.13;4325848;33;33928;-75
2023/08/20 10:33:03;;;;;;;9.15;7.40;;;;;;;34.04;41.36;99964.13;4330146;33;34631;-75
2023/08/20 10:35:37;;;;;;;9.43;7.40;;;;;;;33.99;41.72;99964.03;4329068;33;34134;-75
2023/08/20 10:38:16;;;;;;;7.72;6.45;;;;;;;34.39;39.29;99953.56;4329707;33;32434;-75
2023/08/20 10:40:54;;;;;;;8.90;7.00;;;;;;;34.26;40.03;99960.41;4311955;33;33854;-74
2023/08/20 10:43:36;;;;;;;8.73;6.93;;;;;;;34.35;40.39;99952.41;4309022;33;33772;-73
2023/08/20 10:46:15;;;;;;;8.88;7.45;;;;;;;34.52;39.81;99959.53;4315131;33;34079;-72
2023/08/20 10:49:03;;;;;;;9.13;6.65;;;;;;;34.20;39.25;99953.16;4303352;33;33466;-72
2023/08/20 10:51:36;;;;;;;9.73;7.40;;;;;;;34.75;40.34;99955.50;4311126;33;34557;-73
2023/08/20 10:54:07;;;;;;;13.60;7.03;;;;;;;35.04;38.41;99952.34;4314179;33;34596;-73
2023/08/20 10:56:55;;;;;;;11.75;7.37;;;;;;;34.53;39.63;99957.56;4314161;33;34626;-73
2023/08/20 10:59:26;;;;;;;7.72;6.87;;;;;;;34.97;38.57;99949.78;4301176;33;33400;-72
2023/08/20 11:01:56;;;;;;;12.23;7.28;;;;;;;35.16;38.43;99957.69;4314981;33;35214;-73
2023/08/20 11:04:28;;;;;;;12.55;6.75;;;;;;;35.18;38.02;99949.88;4313292;33;33840;-74
2023/08/20 11:06:57;;;;;;;10.23;7.40;;;;;;;34.53;39.31;99950.06;4315677;33;34175;-75
2023/08/20 11:09:27;;;;;;;7.93;6.97;;;;;;;34.65;39.30;99947.09;4328828;33;33634;-75
2023/08/20 11:11:55;;;;;;;8.65;7.03;;;;;;;34.52;38.58;99953.09;4327826;33;33777;-74
2023/08/20 11:14:23;;;;;;;8.50;7.40;;;;;;;34.86;37.71;99948.03;4338673;33;34330;-73
2023/08/20 11:16:51;;;;;;;9.10;6.50;;;;;;;34.99;38.75;99950.34;4334578;33;33942;-73
2023/08/20 11:19:20;;;;;;;10.93;6.82;;;;;;;34.79;38.56;99947.44;4328855;33;33612;-75
2023/08/20 11:21:48;;;;;;;10.60;7.50;;;;;;;34.82;38.04;99941.34;4324297;33;33840;-74
2023/08/20 11:24:17;;;;;;;8.10;6.62;;;;;;;34.48;38.49;99949.16;4324208;33;34072;-74
2023/08/20 11:26:45;;;;;;;9.75;7.05;;;;;;;34.51;38.60;99937.50;4323279;33;33178;-74
2023/08/20 11:29:20;;;;;;;9.70;7.12;;;;;;;34.72;38.36;99935.75;4324967;33;34933;-74
2023/08/20 11:31:49;;;;;;;7.78;6.82;;;;;;;34.90;38.40;99940.00;4323346;33;34112;-74
2023/08/20 11:34:21;;;;;;;9.77;7.18;;;;;;;34.97;38.99;99941.44;4329750;33;33570;-75
2023/08/20 11:36:49;;;;;;;12.35;7.70;;;;;;;35.05;38.46;99933.69;4336000;33;33294;-75
2023/08/20 11:39:17;;;;;;;8.98;7.53;;;;;;;35.01;37.69;99933.37;4322283;33;33576;-75
2023/08/20 11:41:45;;;;;;;10.20;7.75;;;;;;;34.75;38.28;99935.19;4330242;33;35076;-74